UKON/NLV METAR and TAF weather

Enter ICAO airport designator
Station Type Date Time Source
UKON METAR 2020/08/12 18:00 UTC NOAA

UKON 121800Z 01005MPS 340V050 9999 FEW///CB 23/13 Q1014 R04/090075 NOSIG


Station Type Date Time Source
UKON Decoded METAR 2020/08/12 18:00 UTC NOAA

Mykolaiv, Ukraine (UKON) 47-03-29N 031-55-15E
Aug 12, 2020 - 02:00 PM EDT / 2020.08.12 1800 UTC
Wind: from the N (010 degrees) at 11 MPH (10 KT) (direction variable):0
Visibility: greater than 7 mile(s):0
Sky conditions: mostly clear
Weather: Cumulonimbus clouds observed
Temperature: 73 F (23 C)
Dew Point: 55 F (13 C)
Relative Humidity: 53%
Pressure (altimeter): 29.94 in. Hg (1014 hPa)
ob: UKON 121800Z 01005MPS 340V050 9999 FEW///CB 23/13 Q1014 R04/090075 NOSIG
cycle: 18

Station Type Date Time Source
UKON TAF 2018/11/06 15:06 UTC NOAA

TAF
AMD TAF
AMD UKON 061502Z 0615/0724 CNL

Example: see airport list